createdAt,value
2024-05-09T00:02:06.667Z,6.57
2024-05-09T00:04:38.954Z,6.73
2024-05-09T00:07:11.163Z,6.97
2024-05-09T00:09:46.185Z,7.17
2024-05-09T00:12:18.633Z,7.06
2024-05-09T00:14:50.839Z,6.98
2024-05-09T00:17:23.292Z,7.07
2024-05-09T00:19:55.549Z,6.65
2024-05-09T00:22:27.646Z,7.09
2024-05-09T00:25:02.658Z,7.15
2024-05-09T00:27:34.820Z,7.10
2024-05-09T00:30:07.271Z,7.01
2024-05-09T00:32:39.728Z,7.40
2024-05-09T00:35:12.405Z,7.41
2024-05-09T00:37:44.559Z,7.45
2024-05-09T00:40:30.669Z,7.24
2024-05-09T00:43:11.221Z,7.16
2024-05-09T00:45:44.293Z,7.12
2024-05-09T00:48:21.293Z,7.09
2024-05-09T00:50:56.633Z,6.44
2024-05-09T00:53:29.360Z,6.63
2024-05-09T00:56:05.605Z,6.50
2024-05-09T00:58:37.758Z,7.03
2024-05-09T01:01:12.156Z,7.35
2024-05-09T01:03:45.925Z,7.47
2024-05-09T01:06:18.792Z,7.46
2024-05-09T01:08:51.023Z,7.34
2024-05-09T01:11:26.110Z,7.28
2024-05-09T01:13:58.308Z,7.18
2024-05-09T01:16:30.424Z,7.07
2024-05-09T01:19:03.484Z,7.22
2024-05-09T01:21:35.646Z,7.19
2024-05-09T01:24:11.195Z,7.24
2024-05-09T01:26:43.427Z,7.20
2024-05-09T01:29:15.698Z,7.05
2024-05-09T01:31:48.066Z,7.37
2024-05-09T01:34:20.412Z,7.30
2024-05-09T01:36:52.574Z,7.45
2024-05-09T01:39:27.822Z,7.49
2024-05-09T01:41:59.998Z,7.49
2024-05-09T01:44:32.206Z,7.12
2024-05-09T01:47:04.423Z,7.30
2024-05-09T01:49:39.836Z,7.40
2024-05-09T01:52:12.174Z,7.52
2024-05-09T01:54:47.439Z,7.60
2024-05-09T01:57:19.657Z,7.59
2024-05-09T01:59:51.734Z,7.48
2024-05-09T02:02:23.884Z,7.48
2024-05-09T02:04:56.231Z,7.39
2024-05-09T02:07:28.935Z,7.30
2024-05-09T02:10:06.555Z,7.29
2024-05-09T02:12:40.609Z,7.34
2024-05-09T02:15:13.092Z,7.46
2024-05-09T02:17:45.406Z,7.57
2024-05-09T02:20:26.814Z,7.72
2024-05-09T02:23:04.884Z,7.46
2024-05-09T02:25:40.347Z,7.19
2024-05-09T02:28:12.859Z,7.37
2024-05-09T02:30:44.983Z,7.49
2024-05-09T02:33:17.279Z,7.57
2024-05-09T02:35:49.405Z,7.44
2024-05-09T02:38:18.732Z,7.42
2024-05-09T02:40:54.463Z,7.57
2024-05-09T02:43:23.782Z,7.50
2024-05-09T02:45:55.864Z,7.48
2024-05-09T02:48:25.369Z,7.42
2024-05-09T02:50:57.634Z,7.47
2024-05-09T02:53:27.044Z,7.42
2024-05-09T02:56:02.195Z,7.26
2024-05-09T02:58:34.382Z,7.31
2024-05-09T03:01:03.737Z,7.28
2024-05-09T03:03:36.131Z,7.66
2024-05-09T03:06:05.895Z,7.48
2024-05-09T03:08:38.042Z,7.51
2024-05-09T03:11:10.297Z,7.55
2024-05-09T03:13:45.943Z,7.14
2024-05-09T03:16:15.304Z,7.48
2024-05-09T03:18:47.487Z,6.67
2024-05-09T03:21:16.944Z,7.28
2024-05-09T03:23:49.184Z,6.91
2024-05-09T03:26:21.515Z,7.50
2024-05-09T03:28:53.740Z,7.30
2024-05-09T03:31:23.117Z,7.35
2024-05-09T03:33:55.423Z,7.34
2024-05-09T03:36:24.800Z,7.27
2024-05-09T03:38:57.100Z,7.26
2024-05-09T03:41:32.250Z,7.22
2024-05-09T03:44:04.613Z,7.45
2024-05-09T03:46:41.472Z,7.35
2024-05-09T03:49:10.891Z,7.59
2024-05-09T03:51:43.287Z,7.34
2024-05-09T03:54:12.695Z,7.43
2024-05-09T03:56:47.818Z,7.40
2024-05-09T03:59:17.178Z,7.22
2024-05-09T04:01:50.069Z,6.60
2024-05-09T04:04:19.444Z,6.58
2024-05-09T04:06:51.577Z,7.18
2024-05-09T04:09:20.840Z,7.29
2024-05-09T04:11:55.988Z,7.37
2024-05-09T04:14:25.448Z,7.10
2024-05-09T04:16:57.629Z,7.32
2024-05-09T04:19:27.217Z,7.47
2024-05-09T04:21:58.817Z,7.55
2024-05-09T04:24:28.189Z,7.64
2024-05-09T04:27:03.271Z,7.63
2024-05-09T04:29:33.239Z,7.55
2024-05-09T04:32:05.484Z,7.45
2024-05-09T04:34:36.991Z,7.45
2024-05-09T04:37:09.593Z,6.84
2024-05-09T04:39:38.913Z,7.08
2024-05-09T04:42:14.054Z,7.50
2024-05-09T04:44:43.646Z,7.43
2024-05-09T04:47:16.106Z,7.38
2024-05-09T04:49:47.537Z,7.47
2024-05-09T04:52:19.763Z,7.47
2024-05-09T04:54:49.113Z,7.49
2024-05-09T04:57:24.088Z,7.42
2024-05-09T04:59:53.564Z,7.49
2024-05-09T05:02:25.921Z,7.35
2024-05-09T05:04:55.276Z,7.16
2024-05-09T05:07:27.564Z,7.37
2024-05-09T05:09:56.927Z,7.32
2024-05-09T05:12:47.308Z,7.40
2024-05-09T05:15:20.738Z,7.33
2024-05-09T05:17:53.179Z,7.24
2024-05-09T05:20:30.629Z,7.02
2024-05-09T05:23:05.735Z,7.23
2024-05-09T05:25:35.015Z,7.24
2024-05-09T05:28:10.975Z,7.29
2024-05-09T05:30:42.776Z,7.30
2024-05-09T05:33:16.379Z,7.60
2024-05-09T05:35:46.198Z,7.29
2024-05-09T05:38:19.124Z,7.45
2024-05-09T05:40:49.290Z,7.52
2024-05-09T05:43:24.441Z,7.45
2024-05-09T05:45:53.798Z,7.39
2024-05-09T05:48:26.138Z,7.42
2024-05-09T05:50:55.572Z,7.41
2024-05-09T05:53:27.797Z,7.01
2024-05-09T05:56:09.281Z,7.40
2024-05-09T05:58:44.433Z,7.51
2024-05-09T06:01:14.205Z,7.57
2024-05-09T06:03:45.791Z,7.61
2024-05-09T06:06:15.644Z,7.43
2024-05-09T06:08:47.146Z,7.67
2024-05-09T06:11:16.508Z,7.68
2024-05-09T06:13:51.744Z,7.61
2024-05-09T06:16:21.074Z,7.43
2024-05-09T06:18:53.567Z,7.52
2024-05-09T06:21:23.202Z,7.23
2024-05-09T06:23:55.589Z,6.72
2024-05-09T06:26:24.952Z,7.51
2024-05-09T06:29:00.036Z,7.51
2024-05-09T06:31:29.341Z,7.66
2024-05-09T06:34:01.759Z,7.04
2024-05-09T06:36:31.144Z,7.47
2024-05-09T06:39:03.418Z,7.45
2024-05-09T06:41:32.772Z,7.50
2024-05-09T06:44:07.824Z,7.31
2024-05-09T06:46:38.243Z,7.48
2024-05-09T06:49:10.962Z,7.54
2024-05-09T06:51:40.566Z,7.47
2024-05-09T06:54:13.218Z,7.38
2024-05-09T06:56:42.600Z,7.20
2024-05-09T06:59:17.947Z,7.40
2024-05-09T07:01:50.245Z,7.41
2024-05-09T07:04:19.607Z,7.25
2024-05-09T07:06:51.808Z,7.35
2024-05-09T07:09:21.112Z,7.38
2024-05-09T07:11:53.540Z,7.34
2024-05-09T07:14:25.995Z,7.00
2024-05-09T07:16:58.352Z,7.38
2024-05-09T07:19:27.791Z,7.28
2024-05-09T07:22:00.734Z,7.24
2024-05-09T07:24:29.991Z,7.27
2024-05-09T07:27:02.074Z,7.16
2024-05-09T07:29:36.144Z,7.17
2024-05-09T07:32:10.611Z,7.07
2024-05-09T07:34:40.068Z,7.00
2024-05-09T07:37:13.554Z,7.05
2024-05-09T07:39:42.940Z,7.03
2024-05-09T07:42:15.118Z,7.11
2024-05-09T07:44:47.446Z,6.61
2024-05-09T07:48:29.196Z,7.04
2024-05-09T07:53:34.413Z,7.10
2024-05-09T07:55:34.210Z,6.94
2024-05-09T07:58:06.429Z,6.79
2024-05-09T08:00:38.760Z,6.77
2024-05-09T08:03:11.199Z,6.72
2024-05-09T08:05:40.569Z,6.53
2024-05-09T08:08:13.139Z,6.34
2024-05-09T08:10:42.501Z,6.25
2024-05-09T08:13:14.720Z,6.04
2024-05-09T08:15:46.953Z,5.95
2024-05-09T08:18:19.211Z,5.95
2024-05-09T08:20:50.341Z,5.50
2024-05-09T08:23:22.528Z,5.34
2024-05-09T08:25:51.893Z,5.48
2024-05-09T08:28:24.245Z,5.32
2024-05-09T08:30:57.934Z,4.97
2024-05-09T08:33:30.453Z,5.02
2024-05-09T08:35:59.827Z,4.86
2024-05-09T08:38:32.119Z,4.81
2024-05-09T08:41:04.629Z,4.14
2024-05-09T08:43:39.035Z,4.45
2024-05-09T08:46:14.369Z,4.38
2024-05-09T08:48:48.446Z,4.09
2024-05-09T08:51:18.095Z,4.20
2024-05-09T08:53:50.282Z,4.21
2024-05-09T08:56:21.885Z,4.14
2024-05-09T08:58:54.372Z,4.01
2024-05-09T09:01:28.602Z,3.85
2024-05-09T09:04:02.278Z,3.80
2024-05-09T09:06:34.574Z,3.49
2024-05-09T09:09:08.574Z,3.48
2024-05-09T09:11:37.918Z,3.64
2024-05-09T09:14:10.005Z,3.61
2024-05-09T09:16:42.211Z,3.39
2024-05-09T09:19:15.824Z,3.42
2024-05-09T09:21:45.343Z,3.02
2024-05-09T09:24:18.101Z,2.93
2024-05-09T09:26:47.395Z,3.20
2024-05-09T09:29:24.806Z,3.10
2024-05-09T09:32:04.841Z,2.92
2024-05-09T09:34:37.559Z,2.71
2024-05-09T09:37:07.980Z,2.97
2024-05-09T09:39:42.633Z,2.67
2024-05-09T09:42:13.039Z,2.79
2024-05-09T09:44:54.463Z,2.82
2024-05-09T09:47:32.787Z,2.84
2024-05-09T09:50:11.821Z,2.81
2024-05-09T09:52:43.840Z,2.73
2024-05-09T09:55:17.190Z,2.44
2024-05-09T09:57:46.875Z,2.42
2024-05-09T10:00:27.109Z,2.42
2024-05-09T10:03:04.322Z,2.71
2024-05-09T10:05:39.333Z,2.70
2024-05-09T10:08:11.408Z,2.44
2024-05-09T10:10:44.154Z,2.72
2024-05-09T10:13:13.792Z,2.71
2024-05-09T10:15:49.394Z,2.74
2024-05-09T10:18:29.107Z,2.60
2024-05-09T10:21:00.349Z,2.80
2024-05-09T10:23:32.487Z,2.82
2024-05-09T10:26:03.347Z,2.51
2024-05-09T10:28:37.562Z,2.46
2024-05-09T10:31:11.407Z,2.05
2024-05-09T10:33:53.313Z,2.67
2024-05-09T10:36:23.766Z,2.39
2024-05-09T10:38:57.319Z,2.72
2024-05-09T10:41:26.792Z,2.68
2024-05-09T10:43:59.066Z,2.45
2024-05-09T10:46:28.638Z,2.44
2024-05-09T10:49:06.305Z,2.75
2024-05-09T10:51:37.422Z,2.72
2024-05-09T10:54:09.799Z,2.76
2024-05-09T10:56:39.132Z,2.75
2024-05-09T10:59:11.334Z,2.68
2024-05-09T11:01:41.320Z,2.72
2024-05-09T11:04:16.820Z,2.75
2024-05-09T11:06:48.079Z,2.59
2024-05-09T11:09:20.519Z,2.55
2024-05-09T11:11:50.389Z,2.76
2024-05-09T11:14:21.970Z,2.71
2024-05-09T11:17:00.807Z,2.63
2024-05-09T11:19:38.597Z,2.69
2024-05-09T11:22:08.249Z,2.65
2024-05-09T11:24:40.555Z,2.63
2024-05-09T11:27:09.896Z,2.53
2024-05-09T11:29:44.009Z,2.54
2024-05-09T11:32:15.823Z,2.46
2024-05-09T11:34:51.195Z,2.52
2024-05-09T11:37:20.806Z,1.92
2024-05-09T11:39:54.760Z,2.47
2024-05-09T11:42:24.208Z,2.40
2024-05-09T11:44:56.372Z,2.35
2024-05-09T11:47:25.833Z,2.31
2024-05-09T11:50:01.043Z,2.16
2024-05-09T11:52:30.327Z,2.13
2024-05-09T11:55:03.546Z,2.40
2024-05-09T11:57:33.039Z,2.47
2024-05-09T12:00:07.193Z,2.54
2024-05-09T12:02:36.639Z,2.50
2024-05-09T12:05:12.022Z,2.61
2024-05-09T12:07:41.824Z,2.67
2024-05-09T12:10:19.473Z,2.37
2024-05-09T12:12:52.363Z,2.65
2024-05-09T12:15:23.837Z,2.69
2024-05-09T12:17:53.381Z,2.10
2024-05-09T12:20:36.116Z,2.65
2024-05-09T12:23:09.947Z,2.33
2024-05-09T12:25:43.287Z,2.35
2024-05-09T12:28:12.656Z,2.53
2024-05-09T12:30:44.899Z,2.15
2024-05-09T12:33:14.678Z,2.64
2024-05-09T12:35:51.111Z,2.69
2024-05-09T12:38:20.557Z,2.25
2024-05-09T12:40:53.023Z,2.12
2024-05-09T12:43:22.596Z,2.62
2024-05-09T12:45:55.183Z,2.69
2024-05-09T12:48:24.840Z,2.67
2024-05-09T12:50:59.954Z,2.69
2024-05-09T12:53:29.371Z,2.21
2024-05-09T12:56:03.621Z,2.70
2024-05-09T12:58:34.047Z,2.78
2024-05-09T13:01:06.849Z,2.73
2024-05-09T13:03:36.911Z,2.79
2024-05-09T13:06:12.572Z,2.89
2024-05-09T13:08:42.084Z,2.68
2024-05-09T13:11:14.363Z,2.89
2024-05-09T13:13:43.702Z,2.96
2024-05-09T13:16:15.995Z,3.04
2024-05-09T13:18:45.350Z,3.10
2024-05-09T13:21:20.430Z,3.14
2024-05-09T13:23:49.755Z,3.15
2024-05-09T13:26:21.990Z,3.07
2024-05-09T13:28:51.234Z,3.19
2024-05-09T13:31:23.504Z,3.10
2024-05-09T13:33:53.010Z,3.25
2024-05-09T13:36:28.307Z,2.73
2024-05-09T13:38:58.113Z,3.21
2024-05-09T13:41:30.438Z,3.26
2024-05-09T13:43:59.751Z,3.21
2024-05-09T13:46:32.005Z,3.17
2024-05-09T13:49:01.419Z,3.20
2024-05-09T13:51:36.756Z,3.16
2024-05-09T13:54:06.340Z,3.21
2024-05-09T13:56:38.468Z,3.18
2024-05-09T13:59:07.843Z,3.23
2024-05-09T14:01:40.136Z,3.24
2024-05-09T14:04:10.685Z,2.82
2024-05-09T14:06:46.326Z,3.36
2024-05-09T14:09:15.759Z,3.31
2024-05-09T14:11:47.934Z,3.23
2024-05-09T14:14:17.301Z,3.26
2024-05-09T14:16:49.735Z,3.26
2024-05-09T14:19:19.313Z,3.19
2024-05-09T14:21:54.445Z,3.20
2024-05-09T14:24:23.744Z,3.22
2024-05-09T14:26:55.946Z,3.16
2024-05-09T14:29:25.251Z,3.21
2024-05-09T14:31:57.311Z,2.91
2024-05-09T14:34:26.925Z,3.20
2024-05-09T14:37:02.779Z,3.10
2024-05-09T14:39:32.163Z,3.12
2024-05-09T14:42:04.310Z,3.09
2024-05-09T14:44:33.595Z,3.22
2024-05-09T14:47:05.903Z,3.21
2024-05-09T14:49:35.343Z,3.27
2024-05-09T14:52:11.134Z,3.22
2024-05-09T14:54:40.629Z,3.21
2024-05-09T14:57:13.135Z,3.26
2024-05-09T14:59:42.449Z,3.20
2024-05-09T15:02:14.712Z,3.18
2024-05-09T15:04:44.146Z,2.99
2024-05-09T15:07:19.561Z,3.25
2024-05-09T15:09:48.976Z,3.20
2024-05-09T15:12:21.089Z,3.21
2024-05-09T15:14:50.444Z,3.10
2024-05-09T15:17:22.641Z,2.90
2024-05-09T15:19:52.088Z,3.18
2024-05-09T15:22:27.211Z,3.16
2024-05-09T15:24:56.677Z,3.08
2024-05-09T15:27:28.905Z,3.13
2024-05-09T15:29:58.219Z,2.84
2024-05-09T15:32:30.707Z,3.15
2024-05-09T15:35:00.240Z,3.29
2024-05-09T15:37:35.424Z,3.29
2024-05-09T15:40:11.957Z,3.29
2024-05-09T15:42:47.073Z,3.31
2024-05-09T15:45:16.484Z,3.39
2024-05-09T15:47:48.818Z,3.39
2024-05-09T15:50:28.132Z,3.15
2024-05-09T15:53:11.172Z,3.07
2024-05-09T15:55:41.260Z,2.83
2024-05-09T15:58:13.779Z,3.35
2024-05-09T16:00:45.686Z,3.08
2024-05-09T16:03:20.408Z,3.20
2024-05-09T16:05:49.901Z,3.28
2024-05-09T16:08:25.106Z,3.25
2024-05-09T16:10:54.733Z,3.38
2024-05-09T16:13:27.102Z,3.37
2024-05-09T16:15:56.617Z,3.29
2024-05-09T16:18:29.047Z,3.31
2024-05-09T16:21:01.029Z,3.27
2024-05-09T16:23:40.060Z,3.38
2024-05-09T16:26:09.668Z,3.37
2024-05-09T16:28:42.109Z,3.07
2024-05-09T16:31:11.584Z,3.35
2024-05-09T16:33:43.971Z,3.28
2024-05-09T16:36:13.989Z,3.35
2024-05-09T16:38:49.531Z,3.28
2024-05-09T16:41:18.802Z,3.29
2024-05-09T16:43:51.218Z,3.38
2024-05-09T16:46:20.771Z,3.31
2024-05-09T16:48:53.244Z,3.37
2024-05-09T16:51:22.640Z,2.76
2024-05-09T16:53:57.832Z,3.43
2024-05-09T16:56:27.421Z,3.41
2024-05-09T16:59:00.058Z,3.25
2024-05-09T17:01:29.601Z,3.51
2024-05-09T17:04:01.972Z,3.32
2024-05-09T17:06:31.579Z,3.15
2024-05-09T17:09:11.631Z,3.38
2024-05-09T17:11:47.436Z,2.84
2024-05-09T17:14:19.931Z,3.58
2024-05-09T17:16:52.197Z,3.53
2024-05-09T17:19:24.796Z,3.54
2024-05-09T17:21:54.228Z,3.36
2024-05-09T17:24:29.141Z,3.31
2024-05-09T17:26:58.457Z,3.29
2024-05-09T17:29:30.596Z,3.20
2024-05-09T17:31:59.955Z,3.30
2024-05-09T17:34:32.382Z,3.35
2024-05-09T17:37:01.933Z,3.30
2024-05-09T17:39:38.172Z,3.36
2024-05-09T17:42:07.876Z,3.44
2024-05-09T17:44:40.101Z,3.19
2024-05-09T17:47:11.005Z,3.43
2024-05-09T17:49:43.214Z,3.36
2024-05-09T17:52:15.690Z,3.40
2024-05-09T17:54:47.909Z,3.45
2024-05-09T17:57:20.197Z,3.31
2024-05-09T17:59:50.744Z,3.01
2024-05-09T18:02:23.158Z,3.51
2024-05-09T18:04:52.805Z,3.43
2024-05-09T18:07:25.209Z,3.44
2024-05-09T18:09:57.431Z,3.46
2024-05-09T18:12:29.692Z,3.36
2024-05-09T18:14:59.150Z,3.44
2024-05-09T18:17:31.555Z,3.38
2024-05-09T18:20:01.053Z,3.22
2024-05-09T18:22:33.333Z,3.37
2024-05-09T18:25:05.890Z,3.41
2024-05-09T18:27:38.432Z,2.73
2024-05-09T18:30:23.555Z,3.32
2024-05-09T18:33:00.292Z,3.36
2024-05-09T18:35:29.609Z,3.13
2024-05-09T18:38:01.878Z,2.85
2024-05-09T18:40:36.938Z,3.30
2024-05-09T18:43:10.890Z,3.22
2024-05-09T18:45:40.499Z,3.31
2024-05-09T18:48:13.583Z,3.31
2024-05-09T18:50:43.199Z,3.31
2024-05-09T18:53:18.527Z,3.30
2024-05-09T18:55:53.583Z,3.29
2024-05-09T18:58:22.942Z,3.22
2024-05-09T19:00:56.554Z,2.97
2024-05-09T19:03:27.344Z,3.20
2024-05-09T19:05:59.907Z,3.26
2024-05-09T19:08:29.701Z,3.28
2024-05-09T19:11:05.518Z,2.95
2024-05-09T19:13:35.009Z,3.15
2024-05-09T19:16:07.523Z,3.12
2024-05-09T19:18:37.689Z,3.13
2024-05-09T19:21:10.453Z,3.10
2024-05-09T19:23:46.853Z,3.11
2024-05-09T19:26:26.375Z,3.13
2024-05-09T19:28:55.675Z,3.16
2024-05-09T19:31:27.980Z,3.02
2024-05-09T19:33:57.326Z,2.27
2024-05-09T19:36:29.648Z,2.93
2024-05-09T19:38:59.110Z,3.02
2024-05-09T19:41:34.184Z,2.92
2024-05-09T19:44:03.415Z,2.80
2024-05-09T19:46:35.672Z,2.76
2024-05-09T19:49:06.385Z,2.74
2024-05-09T19:51:38.683Z,2.53
2024-05-09T19:54:07.955Z,2.71
2024-05-09T19:56:46.018Z,2.78
2024-05-09T19:59:15.502Z,2.81
2024-05-09T20:01:47.705Z,2.91
2024-05-09T20:04:17.172Z,3.10
2024-05-09T20:06:49.366Z,3.13
2024-05-09T20:09:18.621Z,3.14
2024-05-09T20:11:53.783Z,2.91
2024-05-09T20:14:23.231Z,3.10
2024-05-09T20:16:55.349Z,3.29
2024-05-09T20:19:24.807Z,3.48
2024-05-09T20:21:57.095Z,3.59
2024-05-09T20:24:26.406Z,3.58
2024-05-09T20:27:01.445Z,3.50
2024-05-09T20:29:30.879Z,3.67
2024-05-09T20:32:03.057Z,3.69
2024-05-09T20:34:32.464Z,3.66
2024-05-09T20:37:04.759Z,3.87
2024-05-09T20:39:34.140Z,4.05
2024-05-09T20:42:09.647Z,4.27
2024-05-09T20:44:39.135Z,4.39
2024-05-09T20:47:11.217Z,4.47
2024-05-09T20:49:40.563Z,4.53
2024-05-09T20:52:12.869Z,4.65
2024-05-09T20:54:42.373Z,4.72
2024-05-09T20:57:17.531Z,4.79
2024-05-09T20:59:46.792Z,4.85
2024-05-09T21:02:19.132Z,4.65
2024-05-09T21:04:48.593Z,5.00
2024-05-09T21:07:20.860Z,4.94
2024-05-09T21:09:50.277Z,5.12
2024-05-09T21:12:26.115Z,5.10
2024-05-09T21:14:55.413Z,4.72
2024-05-09T21:17:27.683Z,5.01
2024-05-09T21:19:57.027Z,5.41
2024-05-09T21:22:29.192Z,5.65
2024-05-09T21:24:58.550Z,5.87
2024-05-09T21:27:35.087Z,5.94
2024-05-09T21:30:06.047Z,5.82
2024-05-09T21:32:39.963Z,5.64
2024-05-09T21:35:09.585Z,5.72
2024-05-09T21:37:41.663Z,5.60
2024-05-09T21:40:14.052Z,5.76
2024-05-09T21:42:59.143Z,5.79
2024-05-09T21:45:28.409Z,5.97
2024-05-09T21:48:00.764Z,6.21
2024-05-09T21:50:36.978Z,6.30
2024-05-09T21:53:12.956Z,6.49
2024-05-09T21:55:43.314Z,6.61
2024-05-09T21:58:18.263Z,6.90
2024-05-09T22:00:47.735Z,7.15
2024-05-09T22:03:22.891Z,7.41
2024-05-09T22:05:52.339Z,7.59
2024-05-09T22:08:24.413Z,7.43
2024-05-09T22:10:53.662Z,7.77
2024-05-09T22:13:29.649Z,8.00
2024-05-09T22:15:59.115Z,8.08
2024-05-09T22:18:31.347Z,8.19
2024-05-09T22:21:00.751Z,8.45
2024-05-09T22:23:32.942Z,8.46
2024-05-09T22:26:02.175Z,8.54
2024-05-09T22:28:37.216Z,8.66
2024-05-09T22:31:06.825Z,8.55
2024-05-09T22:33:39.167Z,9.02
2024-05-09T22:36:09.786Z,9.18
2024-05-09T22:38:42.078Z,9.62
2024-05-09T22:41:11.542Z,9.74
2024-05-09T22:43:46.645Z,9.90
2024-05-09T22:46:16.037Z,10.10
2024-05-09T22:48:48.345Z,10.22
2024-05-09T22:51:17.700Z,10.39
2024-05-09T22:53:50.252Z,10.48
2024-05-09T22:56:28.249Z,10.49
2024-05-09T22:59:04.583Z,10.57
2024-05-09T23:01:34.217Z,10.63
2024-05-09T23:04:07.531Z,10.86
2024-05-09T23:06:36.961Z,10.62
2024-05-09T23:09:10.034Z,11.28
2024-05-09T23:11:43.076Z,11.39
2024-05-09T23:14:18.184Z,11.39
2024-05-09T23:16:47.566Z,11.13
2024-05-09T23:19:19.828Z,11.58
2024-05-09T23:21:49.151Z,11.81
2024-05-09T23:24:21.439Z,11.96
2024-05-09T23:26:50.761Z,11.37
2024-05-09T23:29:25.731Z,11.90
2024-05-09T23:31:58.005Z,12.05
2024-05-09T23:34:27.627Z,12.06
2024-05-09T23:36:59.989Z,11.89
2024-05-09T23:39:29.393Z,12.40
2024-05-09T23:42:01.872Z,12.55
2024-05-09T23:44:34.291Z,12.65
2024-05-09T23:47:08.463Z,12.70
2024-05-09T23:49:39.563Z,12.81
2024-05-09T23:52:11.296Z,12.85
2024-05-09T23:54:40.785Z,12.93
2024-05-09T23:57:12.926Z,13.11
2024-05-09T23:59:45.196Z,13.17
